sensor_id;sensor_type;location;lat;lon;timestamp;temperature;humidity
4985;DHT22;2509;49.902;8.600;2023-04-25T00:00:33;8.50;99.90
4985;DHT22;2509;49.902;8.600;2023-04-25T00:03:34;8.50;99.90
4985;DHT22;2509;49.902;8.600;2023-04-25T00:06:37;8.40;99.90
4985;DHT22;2509;49.902;8.600;2023-04-25T00:09:38;8.40;99.90
4985;DHT22;2509;49.902;8.600;2023-04-25T00:12:40;8.40;99.90
4985;DHT22;2509;49.902;8.600;2023-04-25T00:15:43;8.30;99.90
4985;DHT22;2509;49.902;8.600;2023-04-25T00:18:48;8.30;99.90
4985;DHT22;2509;49.902;8.600;2023-04-25T00:21:51;8.30;99.90
4985;DHT22;2509;49.902;8.600;2023-04-25T00:24:53;8.30;99.90
4985;DHT22;2509;49.902;8.600;2023-04-25T00:27:57;8.30;99.90
4985;DHT22;2509;49.902;8.600;2023-04-25T00:31:00;8.30;99.90
4985;DHT22;2509;49.902;8.600;2023-04-25T00:34:02;8.40;99.90
4985;DHT22;2509;49.902;8.600;2023-04-25T00:37:04;8.30;99.90
4985;DHT22;2509;49.902;8.600;2023-04-25T00:40:07;8.30;99.90
4985;DHT22;2509;49.902;8.600;2023-04-25T00:43:09;8.30;99.90
4985;DHT22;2509;49.902;8.600;2023-04-25T00:46:12;8.30;99.90
4985;DHT22;2509;49.902;8.600;2023-04-25T00:49:13;8.30;99.90
4985;DHT22;2509;49.902;8.600;2023-04-25T00:52:17;8.30;99.90
4985;DHT22;2509;49.902;8.600;2023-04-25T00:55:19;8.40;99.90
4985;DHT22;2509;49.902;8.600;2023-04-25T00:58:22;8.40;99.90
4985;DHT22;2509;49.902;8.600;2023-04-25T01:01:25;8.40;99.90
4985;DHT22;2509;49.902;8.600;2023-04-25T01:04:28;8.40;99.90
4985;DHT22;2509;49.902;8.600;2023-04-25T02:02:52;8.30;99.90
4985;DHT22;2509;49.902;8.600;2023-04-25T02:05:54;8.40;99.90
4985;DHT22;2509;49.902;8.600;2023-04-25T02:08:56;8.30;99.90
4985;DHT22;2509;49.902;8.600;2023-04-25T02:11:58;8.30;99.90
4985;DHT22;2509;49.902;8.600;2023-04-25T02:15:00;8.30;99.90
4985;DHT22;2509;49.902;8.600;2023-04-25T02:18:03;8.40;99.90
4985;DHT22;2509;49.902;8.600;2023-04-25T02:21:06;8.30;99.90
4985;DHT22;2509;49.902;8.600;2023-04-25T02:24:08;8.40;99.90
4985;DHT22;2509;49.902;8.600;2023-04-25T02:27:10;8.30;99.90
4985;DHT22;2509;49.902;8.600;2023-04-25T02:30:12;8.30;99.90
4985;DHT22;2509;49.902;8.600;2023-04-25T02:33:15;8.30;99.90
4985;DHT22;2509;49.902;8.600;2023-04-25T02:36:17;8.40;99.90
4985;DHT22;2509;49.902;8.600;2023-04-25T02:39:19;8.40;99.90
4985;DHT22;2509;49.902;8.600;2023-04-25T02:42:22;8.50;99.90
4985;DHT22;2509;49.902;8.600;2023-04-25T02:45:24;8.50;99.90
4985;DHT22;2509;49.902;8.600;2023-04-25T02:48:27;8.50;99.90
4985;DHT22;2509;49.902;8.600;2023-04-25T02:51:29;8.40;99.90
4985;DHT22;2509;49.902;8.600;2023-04-25T02:54:31;8.40;99.90
4985;DHT22;2509;49.902;8.600;2023-04-25T02:57:33;8.40;99.90
4985;DHT22;2509;49.902;8.600;2023-04-25T03:00:35;8.40;99.90
4985;DHT22;2509;49.902;8.600;2023-04-25T03:03:38;8.40;99.90
4985;DHT22;2509;49.902;8.600;2023-04-25T03:06:40;8.40;99.90
4985;DHT22;2509;49.902;8.600;2023-04-25T03:09:42;8.40;99.90
4985;DHT22;2509;49.902;8.600;2023-04-25T03:12:44;8.40;99.90
4985;DHT22;2509;49.902;8.600;2023-04-25T03:15:45;8.30;99.90
4985;DHT22;2509;49.902;8.600;2023-04-25T03:18:48;8.40;99.90
4985;DHT22;2509;49.902;8.600;2023-04-25T03:21:51;8.40;99.90
4985;DHT22;2509;49.902;8.600;2023-04-25T03:24:54;8.40;99.90
4985;DHT22;2509;49.902;8.600;2023-04-25T03:27:55;8.30;99.90
4985;DHT22;2509;49.902;8.600;2023-04-25T03:30:57;8.30;99.90
4985;DHT22;2509;49.902;8.600;2023-04-25T03:34:00;8.30;99.90
4985;DHT22;2509;49.902;8.600;2023-04-25T03:37:02;8.40;99.90
4985;DHT22;2509;49.902;8.600;2023-04-25T03:40:05;8.40;99.90
4985;DHT22;2509;49.902;8.600;2023-04-25T03:43:07;8.40;99.90
4985;DHT22;2509;49.902;8.600;2023-04-25T03:46:09;8.40;99.90
4985;DHT22;2509;49.902;8.600;2023-04-25T03:49:12;8.40;99.90
4985;DHT22;2509;49.902;8.600;2023-04-25T03:52:14;8.50;99.90
4985;DHT22;2509;49.902;8.600;2023-04-25T03:55:16;8.50;99.90
4985;DHT22;2509;49.902;8.600;2023-04-25T03:58:18;8.50;99.90
4985;DHT22;2509;49.902;8.600;2023-04-25T04:01:19;8.40;99.90
4985;DHT22;2509;49.902;8.600;2023-04-25T04:04:23;8.30;99.90
4985;DHT22;2509;49.902;8.600;2023-04-25T04:07:24;8.30;99.90
4985;DHT22;2509;49.902;8.600;2023-04-25T04:10:26;8.30;99.90
4985;DHT22;2509;49.902;8.600;2023-04-25T04:13:28;8.40;99.90
4985;DHT22;2509;49.902;8.600;2023-04-25T04:16:30;8.40;99.90
4985;DHT22;2509;49.902;8.600;2023-04-25T04:19:34;8.50;99.90
4985;DHT22;2509;49.902;8.600;2023-04-25T04:22:35;8.50;99.90
4985;DHT22;2509;49.902;8.600;2023-04-25T04:25:37;8.60;99.90
4985;DHT22;2509;49.902;8.600;2023-04-25T04:28:40;8.60;99.90
4985;DHT22;2509;49.902;8.600;2023-04-25T04:31:41;8.60;99.90
4985;DHT22;2509;49.902;8.600;2023-04-25T04:34:44;8.60;99.90
4985;DHT22;2509;49.902;8.600;2023-04-25T04:37:47;8.60;99.90
4985;DHT22;2509;49.902;8.600;2023-04-25T04:40:49;8.60;99.90
4985;DHT22;2509;49.902;8.600;2023-04-25T04:43:52;8.50;99.90
4985;DHT22;2509;49.902;8.600;2023-04-25T04:46:56;8.50;99.90
4985;DHT22;2509;49.902;8.600;2023-04-25T04:49:59;8.40;99.90
4985;DHT22;2509;49.902;8.600;2023-04-25T04:53:01;8.30;99.90
4985;DHT22;2509;49.902;8.600;2023-04-25T04:56:04;8.30;99.90
4985;DHT22;2509;49.902;8.600;2023-04-25T04:59:06;8.30;99.90
4985;DHT22;2509;49.902;8.600;2023-04-25T05:02:07;8.20;99.90
4985;DHT22;2509;49.902;8.600;2023-04-25T05:05:12;8.10;99.90
4985;DHT22;2509;49.902;8.600;2023-04-25T05:08:13;8.00;99.90
4985;DHT22;2509;49.902;8.600;2023-04-25T05:11:15;7.90;99.90
4985;DHT22;2509;49.902;8.600;2023-04-25T05:14:17;7.80;99.90
4985;DHT22;2509;49.902;8.600;2023-04-25T05:17:19;7.80;99.90
4985;DHT22;2509;49.902;8.600;2023-04-25T05:20:22;7.80;99.90
4985;DHT22;2509;49.902;8.600;2023-04-25T05:23:24;7.70;99.90
4985;DHT22;2509;49.902;8.600;2023-04-25T05:26:25;7.50;99.90
4985;DHT22;2509;49.902;8.600;2023-04-25T05:29:31;7.50;99.90
4985;DHT22;2509;49.902;8.600;2023-04-25T05:32:33;7.60;99.90
4985;DHT22;2509;49.902;8.600;2023-04-25T05:35:36;7.60;99.90
4985;DHT22;2509;49.902;8.600;2023-04-25T05:38:38;7.60;99.90
4985;DHT22;2509;49.902;8.600;2023-04-25T05:41:39;7.70;99.90
4985;DHT22;2509;49.902;8.600;2023-04-25T05:44:41;7.70;99.90
4985;DHT22;2509;49.902;8.600;2023-04-25T05:47:43;7.70;99.90
4985;DHT22;2509;49.902;8.600;2023-04-25T05:50:46;7.70;99.90
4985;DHT22;2509;49.902;8.600;2023-04-25T05:54:06;7.80;99.90
4985;DHT22;2509;49.902;8.600;2023-04-25T05:57:19;7.90;99.90
4985;DHT22;2509;49.902;8.600;2023-04-25T06:00:22;8.10;99.90
4985;DHT22;2509;49.902;8.600;2023-04-25T06:03:24;8.10;99.90
4985;DHT22;2509;49.902;8.600;2023-04-25T06:06:27;8.10;99.90
4985;DHT22;2509;49.902;8.600;2023-04-25T06:09:29;8.00;99.90
4985;DHT22;2509;49.902;8.600;2023-04-25T06:12:31;8.00;99.90
4985;DHT22;2509;49.902;8.600;2023-04-25T06:15:33;8.10;99.90
4985;DHT22;2509;49.902;8.600;2023-04-25T06:18:35;8.10;99.90
4985;DHT22;2509;49.902;8.600;2023-04-25T06:21:38;8.10;99.90
4985;DHT22;2509;49.902;8.600;2023-04-25T06:24:40;8.20;99.90
4985;DHT22;2509;49.902;8.600;2023-04-25T06:27:42;8.20;99.90
4985;DHT22;2509;49.902;8.600;2023-04-25T06:30:44;8.20;99.90
4985;DHT22;2509;49.902;8.600;2023-04-25T06:33:45;8.20;99.90
4985;DHT22;2509;49.902;8.600;2023-04-25T06:36:50;8.30;99.90
4985;DHT22;2509;49.902;8.600;2023-04-25T06:39:52;8.30;99.90
4985;DHT22;2509;49.902;8.600;2023-04-25T06:42:53;8.40;99.90
4985;DHT22;2509;49.902;8.600;2023-04-25T06:45:55;8.40;99.90
4985;DHT22;2509;49.902;8.600;2023-04-25T06:48:58;8.60;99.90
4985;DHT22;2509;49.902;8.600;2023-04-25T06:52:02;8.70;99.90
4985;DHT22;2509;49.902;8.600;2023-04-25T06:55:04;8.80;99.90
4985;DHT22;2509;49.902;8.600;2023-04-25T06:58:07;8.60;99.90
4985;DHT22;2509;49.902;8.600;2023-04-25T07:01:20;8.60;99.90
4985;DHT22;2509;49.902;8.600;2023-04-25T07:04:56;8.60;99.90
4985;DHT22;2509;49.902;8.600;2023-04-25T07:08:02;8.70;99.90
4985;DHT22;2509;49.902;8.600;2023-04-25T07:11:09;8.70;99.90
4985;DHT22;2509;49.902;8.600;2023-04-25T07:14:14;8.80;99.90
4985;DHT22;2509;49.902;8.600;2023-04-25T07:17:16;8.90;99.90
4985;DHT22;2509;49.902;8.600;2023-04-25T07:20:18;8.90;99.90
4985;DHT22;2509;49.902;8.600;2023-04-25T07:23:22;8.90;99.90
4985;DHT22;2509;49.902;8.600;2023-04-25T07:26:24;8.80;99.90
4985;DHT22;2509;49.902;8.600;2023-04-25T07:29:26;8.80;99.90
4985;DHT22;2509;49.902;8.600;2023-04-25T07:32:28;8.90;99.90
4985;DHT22;2509;49.902;8.600;2023-04-25T07:35:29;9.00;99.90
4985;DHT22;2509;49.902;8.600;2023-04-25T07:38:33;9.00;99.90
4985;DHT22;2509;49.902;8.600;2023-04-25T07:41:35;9.00;99.90
4985;DHT22;2509;49.902;8.600;2023-04-25T07:44:36;9.10;99.90
4985;DHT22;2509;49.902;8.600;2023-04-25T07:47:40;9.20;99.90
4985;DHT22;2509;49.902;8.600;2023-04-25T07:50:42;9.20;99.90
4985;DHT22;2509;49.902;8.600;2023-04-25T07:53:45;9.10;99.90
4985;DHT22;2509;49.902;8.600;2023-04-25T07:56:47;9.20;99.90
4985;DHT22;2509;49.902;8.600;2023-04-25T07:59:49;9.20;99.90
4985;DHT22;2509;49.902;8.600;2023-04-25T08:02:51;9.10;99.90
4985;DHT22;2509;49.902;8.600;2023-04-25T08:05:53;9.10;99.90
4985;DHT22;2509;49.902;8.600;2023-04-25T08:08:57;9.10;99.90
4985;DHT22;2509;49.902;8.600;2023-04-25T08:11:59;9.10;99.90
4985;DHT22;2509;49.902;8.600;2023-04-25T08:15:01;9.10;99.90
4985;DHT22;2509;49.902;8.600;2023-04-25T08:18:03;9.30;99.90
4985;DHT22;2509;49.902;8.600;2023-04-25T08:21:05;9.40;99.90
4985;DHT22;2509;49.902;8.600;2023-04-25T08:24:10;9.50;99.90
4985;DHT22;2509;49.902;8.600;2023-04-25T08:27:12;9.70;99.90
4985;DHT22;2509;49.902;8.600;2023-04-25T08:30:14;9.80;99.90
4985;DHT22;2509;49.902;8.600;2023-04-25T08:33:15;10.20;99.90
4985;DHT22;2509;49.902;8.600;2023-04-25T08:36:17;10.40;99.90
4985;DHT22;2509;49.902;8.600;2023-04-25T08:39:21;10.50;99.90
4985;DHT22;2509;49.902;8.600;2023-04-25T08:42:26;10.70;99.90
4985;DHT22;2509;49.902;8.600;2023-04-25T08:45:31;10.90;99.90
4985;DHT22;2509;49.902;8.600;2023-04-25T08:48:33;10.70;99.90
4985;DHT22;2509;49.902;8.600;2023-04-25T08:51:44;10.70;99.90
4985;DHT22;2509;49.902;8.600;2023-04-25T08:54:48;10.70;99.90
4985;DHT22;2509;49.902;8.600;2023-04-25T08:57:51;10.80;99.90
4985;DHT22;2509;49.902;8.600;2023-04-25T09:00:55;11.00;99.90
4985;DHT22;2509;49.902;8.600;2023-04-25T09:03:57;11.20;99.90
4985;DHT22;2509;49.902;8.600;2023-04-25T09:06:59;11.10;99.90
4985;DHT22;2509;49.902;8.600;2023-04-25T09:10:02;11.30;99.90
4985;DHT22;2509;49.902;8.600;2023-04-25T09:13:06;11.70;99.90
4985;DHT22;2509;49.902;8.600;2023-04-25T09:16:09;11.80;99.90
4985;DHT22;2509;49.902;8.600;2023-04-25T09:19:21;12.00;99.90
4985;DHT22;2509;49.902;8.600;2023-04-25T09:22:23;12.20;99.90
4985;DHT22;2509;49.902;8.600;2023-04-25T09:25:26;12.40;99.90
4985;DHT22;2509;49.902;8.600;2023-04-25T09:28:28;12.20;99.90
4985;DHT22;2509;49.902;8.600;2023-04-25T09:31:33;12.10;99.90
4985;DHT22;2509;49.902;8.600;2023-04-25T09:34:39;12.10;99.90
4985;DHT22;2509;49.902;8.600;2023-04-25T09:37:41;12.00;99.90
4985;DHT22;2509;49.902;8.600;2023-04-25T09:40:47;11.90;99.90
4985;DHT22;2509;49.902;8.600;2023-04-25T09:43:50;11.70;99.90
4985;DHT22;2509;49.902;8.600;2023-04-25T09:46:51;11.70;99.90
4985;DHT22;2509;49.902;8.600;2023-04-25T09:49:55;11.70;99.90
4985;DHT22;2509;49.902;8.600;2023-04-25T09:53:03;11.70;99.90
4985;DHT22;2509;49.902;8.600;2023-04-25T09:56:08;11.70;99.90
4985;DHT22;2509;49.902;8.600;2023-04-25T09:59:12;11.70;99.90
4985;DHT22;2509;49.902;8.600;2023-04-25T10:02:24;11.70;99.90
4985;DHT22;2509;49.902;8.600;2023-04-25T10:05:38;11.50;99.90
4985;DHT22;2509;49.902;8.600;2023-04-25T10:08:42;11.40;99.90
4985;DHT22;2509;49.902;8.600;2023-04-25T10:11:46;11.50;99.90
4985;DHT22;2509;49.902;8.600;2023-04-25T10:14:50;11.40;99.90
4985;DHT22;2509;49.902;8.600;2023-04-25T10:17:53;11.40;99.90
4985;DHT22;2509;49.902;8.600;2023-04-25T10:20:56;11.40;99.90
4985;DHT22;2509;49.902;8.600;2023-04-25T10:23:59;11.50;99.90
4985;DHT22;2509;49.902;8.600;2023-04-25T10:27:03;11.50;99.90
4985;DHT22;2509;49.902;8.600;2023-04-25T10:30:08;11.60;99.90
4985;DHT22;2509;49.902;8.600;2023-04-25T10:33:16;11.90;99.90
4985;DHT22;2509;49.902;8.600;2023-04-25T10:36:20;12.10;99.90
4985;DHT22;2509;49.902;8.600;2023-04-25T10:39:24;12.30;99.90
4985;DHT22;2509;49.902;8.600;2023-04-25T10:42:28;12.60;99.90
4985;DHT22;2509;49.902;8.600;2023-04-25T10:45:51;13.00;99.90
4985;DHT22;2509;49.902;8.600;2023-04-25T10:48:54;12.90;99.90
4985;DHT22;2509;49.902;8.600;2023-04-25T10:52:14;12.80;99.90
4985;DHT22;2509;49.902;8.600;2023-04-25T10:55:16;12.60;99.90
4985;DHT22;2509;49.902;8.600;2023-04-25T10:58:22;12.20;99.90
4985;DHT22;2509;49.902;8.600;2023-04-25T11:01:25;12.20;99.90
4985;DHT22;2509;49.902;8.600;2023-04-25T11:04:29;12.50;99.90
4985;DHT22;2509;49.902;8.600;2023-04-25T11:07:37;12.90;99.90
4985;DHT22;2509;49.902;8.600;2023-04-25T11:10:40;13.20;99.90
4985;DHT22;2509;49.902;8.600;2023-04-25T11:13:43;13.70;99.90
4985;DHT22;2509;49.902;8.600;2023-04-25T11:16:45;13.90;99.90
4985;DHT22;2509;49.902;8.600;2023-04-25T11:19:48;13.90;99.90
4985;DHT22;2509;49.902;8.600;2023-04-25T11:22:50;13.90;99.90
4985;DHT22;2509;49.902;8.600;2023-04-25T11:25:52;13.80;99.90
4985;DHT22;2509;49.902;8.600;2023-04-25T11:28:59;13.70;99.90
4985;DHT22;2509;49.902;8.600;2023-04-25T11:32:01;13.40;99.90
4985;DHT22;2509;49.902;8.600;2023-04-25T11:35:04;13.10;99.90
4985;DHT22;2509;49.902;8.600;2023-04-25T11:38:06;12.80;99.90
4985;DHT22;2509;49.902;8.600;2023-04-25T11:41:09;12.80;99.90
4985;DHT22;2509;49.902;8.600;2023-04-25T11:44:12;13.00;99.90
4985;DHT22;2509;49.902;8.600;2023-04-25T11:47:16;12.90;99.90
4985;DHT22;2509;49.902;8.600;2023-04-25T11:50:18;13.00;99.90
4985;DHT22;2509;49.902;8.600;2023-04-25T11:53:21;12.80;99.90
4985;DHT22;2509;49.902;8.600;2023-04-25T11:56:25;12.90;99.90
4985;DHT22;2509;49.902;8.600;2023-04-25T11:59:30;12.80;99.90
4985;DHT22;2509;49.902;8.600;2023-04-25T12:02:36;12.70;99.90
4985;DHT22;2509;49.902;8.600;2023-04-25T12:05:39;12.90;99.90
4985;DHT22;2509;49.902;8.600;2023-04-25T12:09:01;12.70;99.90
4985;DHT22;2509;49.902;8.600;2023-04-25T12:12:04;12.60;99.90
4985;DHT22;2509;49.902;8.600;2023-04-25T12:15:18;12.50;99.90
4985;DHT22;2509;49.902;8.600;2023-04-25T12:18:24;12.60;99.90
4985;DHT22;2509;49.902;8.600;2023-04-25T12:21:28;12.50;99.90
4985;DHT22;2509;49.902;8.600;2023-04-25T12:24:33;12.50;99.90
4985;DHT22;2509;49.902;8.600;2023-04-25T12:27:35;12.50;99.90
4985;DHT22;2509;49.902;8.600;2023-04-25T12:34:04;12.60;99.90
4985;DHT22;2509;49.902;8.600;2023-04-25T12:37:06;12.90;99.90
4985;DHT22;2509;49.902;8.600;2023-04-25T12:40:09;13.00;99.90
4985;DHT22;2509;49.902;8.600;2023-04-25T12:43:10;13.10;99.90
4985;DHT22;2509;49.902;8.600;2023-04-25T12:46:12;13.60;99.90
4985;DHT22;2509;49.902;8.600;2023-04-25T12:49:15;15.40;99.90
4985;DHT22;2509;49.902;8.600;2023-04-25T12:52:17;16.50;99.90
4985;DHT22;2509;49.902;8.600;2023-04-25T12:55:19;17.40;99.90
4985;DHT22;2509;49.902;8.600;2023-04-25T12:58:20;18.10;99.90
4985;DHT22;2509;49.902;8.600;2023-04-25T13:01:24;17.70;96.70
4985;DHT22;2509;49.902;8.600;2023-04-25T13:04:28;17.40;99.90
4985;DHT22;2509;49.902;8.600;2023-04-25T13:07:30;17.40;98.00
4985;DHT22;2509;49.902;8.600;2023-04-25T13:10:31;16.80;97.40
4985;DHT22;2509;49.902;8.600;2023-04-25T13:13:34;16.50;99.90
4985;DHT22;2509;49.902;8.600;2023-04-25T13:16:35;16.50;99.90
4985;DHT22;2509;49.902;8.600;2023-04-25T13:19:39;16.90;99.90
4985;DHT22;2509;49.902;8.600;2023-04-25T13:22:41;17.70;98.40
4985;DHT22;2509;49.902;8.600;2023-04-25T13:25:43;18.10;97.80
4985;DHT22;2509;49.902;8.600;2023-04-25T13:28:45;17.40;94.00
4985;DHT22;2509;49.902;8.600;2023-04-25T13:31:47;16.60;97.40
4985;DHT22;2509;49.902;8.600;2023-04-25T13:34:51;16.20;99.90
4985;DHT22;2509;49.902;8.600;2023-04-25T13:37:53;15.60;98.80
4985;DHT22;2509;49.902;8.600;2023-04-25T13:40:55;15.20;99.90
4985;DHT22;2509;49.902;8.600;2023-04-25T13:43:56;15.30;99.20
4985;DHT22;2509;49.902;8.600;2023-04-25T13:46:58;15.30;99.90
4985;DHT22;2509;49.902;8.600;2023-04-25T13:50:03;15.00;99.10
4985;DHT22;2509;49.902;8.600;2023-04-25T13:53:06;14.70;99.90
4985;DHT22;2509;49.902;8.600;2023-04-25T13:56:08;14.50;99.90
4985;DHT22;2509;49.902;8.600;2023-04-25T13:59:10;14.50;99.90
4985;DHT22;2509;49.902;8.600;2023-04-25T14:02:12;14.30;99.90
4985;DHT22;2509;49.902;8.600;2023-04-25T14:05:15;14.20;99.90
4985;DHT22;2509;49.902;8.600;2023-04-25T14:08:16;14.30;99.90
4985;DHT22;2509;49.902;8.600;2023-04-25T14:11:18;14.70;99.90
4985;DHT22;2509;49.902;8.600;2023-04-25T14:14:20;15.00;99.90
4985;DHT22;2509;49.902;8.600;2023-04-25T14:17:22;15.10;99.10
4985;DHT22;2509;49.902;8.600;2023-04-25T14:20:25;15.30;97.50
4985;DHT22;2509;49.902;8.600;2023-04-25T14:23:27;15.20;97.90
4985;DHT22;2509;49.902;8.600;2023-04-25T14:26:29;14.90;98.20
4985;DHT22;2509;49.902;8.600;2023-04-25T14:29:30;14.70;99.90
4985;DHT22;2509;49.902;8.600;2023-04-25T14:32:32;14.70;98.60
4985;DHT22;2509;49.902;8.600;2023-04-25T14:35:36;14.60;98.80
4985;DHT22;2509;49.902;8.600;2023-04-25T14:38:38;14.40;99.60
4985;DHT22;2509;49.902;8.600;2023-04-25T14:41:40;14.30;99.90
4985;DHT22;2509;49.902;8.600;2023-04-25T14:44:41;14.30;99.90
4985;DHT22;2509;49.902;8.600;2023-04-25T14:47:43;14.30;99.90
4985;DHT22;2509;49.902;8.600;2023-04-25T14:50:46;14.30;99.90
4985;DHT22;2509;49.902;8.600;2023-04-25T14:53:48;14.40;99.90
4985;DHT22;2509;49.902;8.600;2023-04-25T14:56:50;14.40;99.90
4985;DHT22;2509;49.902;8.600;2023-04-25T14:59:52;14.30;98.50
4985;DHT22;2509;49.902;8.600;2023-04-25T15:02:55;14.20;99.80
4985;DHT22;2509;49.902;8.600;2023-04-25T15:05:58;14.10;99.20
4985;DHT22;2509;49.902;8.600;2023-04-25T15:09:00;14.00;98.20
4985;DHT22;2509;49.902;8.600;2023-04-25T15:12:02;14.00;99.30
4985;DHT22;2509;49.902;8.600;2023-04-25T15:15:05;15.20;97.90
4985;DHT22;2509;49.902;8.600;2023-04-25T15:18:07;16.80;93.50
4985;DHT22;2509;49.902;8.600;2023-04-25T15:21:10;17.10;92.20
4985;DHT22;2509;49.902;8.600;2023-04-25T15:24:11;16.60;91.50
4985;DHT22;2509;49.902;8.600;2023-04-25T15:27:15;15.80;92.70
4985;DHT22;2509;49.902;8.600;2023-04-25T15:30:17;15.20;92.00
4985;DHT22;2509;49.902;8.600;2023-04-25T15:33:20;14.80;94.70
4985;DHT22;2509;49.902;8.600;2023-04-25T15:36:23;14.30;95.40
4985;DHT22;2509;49.902;8.600;2023-04-25T15:39:25;14.00;95.40
4985;DHT22;2509;49.902;8.600;2023-04-25T15:42:26;13.70;96.90
4985;DHT22;2509;49.902;8.600;2023-04-25T15:45:28;13.60;98.20
4985;DHT22;2509;49.902;8.600;2023-04-25T15:48:32;13.50;99.50
4985;DHT22;2509;49.902;8.600;2023-04-25T15:51:35;13.30;98.30
4985;DHT22;2509;49.902;8.600;2023-04-25T15:54:37;13.30;99.90
4985;DHT22;2509;49.902;8.600;2023-04-25T15:57:38;13.30;99.90
4985;DHT22;2509;49.902;8.600;2023-04-25T16:00:41;13.50;99.90
4985;DHT22;2509;49.902;8.600;2023-04-25T16:03:43;13.50;99.90
4985;DHT22;2509;49.902;8.600;2023-04-25T16:06:46;13.50;99.90
4985;DHT22;2509;49.902;8.600;2023-04-25T16:09:48;13.50;99.90
4985;DHT22;2509;49.902;8.600;2023-04-25T16:12:50;13.40;99.30
4985;DHT22;2509;49.902;8.600;2023-04-25T16:15:52;13.40;99.90
4985;DHT22;2509;49.902;8.600;2023-04-25T16:18:53;13.80;99.60
4985;DHT22;2509;49.902;8.600;2023-04-25T16:21:56;14.20;99.10
4985;DHT22;2509;49.902;8.600;2023-04-25T16:24:58;14.50;96.90
4985;DHT22;2509;49.902;8.600;2023-04-25T16:28:00;14.70;96.80
4985;DHT22;2509;49.902;8.600;2023-04-25T16:31:01;14.70;94.20
4985;DHT22;2509;49.902;8.600;2023-04-25T16:34:03;14.60;93.10
4985;DHT22;2509;49.902;8.600;2023-04-25T16:37:06;14.40;94.00
4985;DHT22;2509;49.902;8.600;2023-04-25T16:40:09;14.30;95.50
4985;DHT22;2509;49.902;8.600;2023-04-25T16:43:11;14.10;97.00
4985;DHT22;2509;49.902;8.600;2023-04-25T16:46:12;14.00;96.90
4985;DHT22;2509;49.902;8.600;2023-04-25T16:49:14;14.00;96.20
4985;DHT22;2509;49.902;8.600;2023-04-25T16:52:17;13.80;94.40
4985;DHT22;2509;49.902;8.600;2023-04-25T16:55:21;13.70;95.10
4985;DHT22;2509;49.902;8.600;2023-04-25T16:58:23;13.60;96.20
4985;DHT22;2509;49.902;8.600;2023-04-25T17:01:26;13.50;95.00
4985;DHT22;2509;49.902;8.600;2023-04-25T17:04:28;13.20;95.90
4985;DHT22;2509;49.902;8.600;2023-04-25T17:07:31;13.00;96.60
4985;DHT22;2509;49.902;8.600;2023-04-25T17:10:33;12.90;97.40
4985;DHT22;2509;49.902;8.600;2023-04-25T17:13:34;12.90;98.50
4985;DHT22;2509;49.902;8.600;2023-04-25T17:16:37;12.90;98.00
4985;DHT22;2509;49.902;8.600;2023-04-25T17:19:39;12.80;98.30
4985;DHT22;2509;49.902;8.600;2023-04-25T17:22:42;12.70;98.90
4985;DHT22;2509;49.902;8.600;2023-04-25T17:25:44;12.70;98.70
4985;DHT22;2509;49.902;8.600;2023-04-25T17:28:46;12.60;99.00
4985;DHT22;2509;49.902;8.600;2023-04-25T17:31:48;12.60;99.10
4985;DHT22;2509;49.902;8.600;2023-04-25T17:34:50;12.50;99.70
4985;DHT22;2509;49.902;8.600;2023-04-25T17:37:53;12.40;99.60
4985;DHT22;2509;49.902;8.600;2023-04-25T17:40:55;12.30;99.90
4985;DHT22;2509;49.902;8.600;2023-04-25T17:43:57;12.30;99.90
4985;DHT22;2509;49.902;8.600;2023-04-25T17:46:59;12.30;99.90
4985;DHT22;2509;49.902;8.600;2023-04-25T17:50:01;12.30;99.90
4985;DHT22;2509;49.902;8.600;2023-04-25T17:53:05;12.10;99.30
4985;DHT22;2509;49.902;8.600;2023-04-25T17:56:07;12.10;99.90
4985;DHT22;2509;49.902;8.600;2023-04-25T17:59:09;12.00;99.90
4985;DHT22;2509;49.902;8.600;2023-04-25T18:02:11;12.00;99.90
4985;DHT22;2509;49.902;8.600;2023-04-25T18:05:13;12.00;99.90
4985;DHT22;2509;49.902;8.600;2023-04-25T18:08:16;11.90;99.90
4985;DHT22;2509;49.902;8.600;2023-04-25T18:11:18;11.80;99.90
4985;DHT22;2509;49.902;8.600;2023-04-25T18:14:20;11.80;99.90
4985;DHT22;2509;49.902;8.600;2023-04-25T18:17:23;11.70;99.90
4985;DHT22;2509;49.902;8.600;2023-04-25T18:20:25;11.60;99.90
4985;DHT22;2509;49.902;8.600;2023-04-25T18:23:29;11.50;99.90
4985;DHT22;2509;49.902;8.600;2023-04-25T18:26:31;11.50;99.90
4985;DHT22;2509;49.902;8.600;2023-04-25T18:29:33;11.50;99.90
4985;DHT22;2509;49.902;8.600;2023-04-25T18:32:37;11.40;99.90
4985;DHT22;2509;49.902;8.600;2023-04-25T18:35:39;11.40;99.90
4985;DHT22;2509;49.902;8.600;2023-04-25T18:38:42;11.30;99.90
4985;DHT22;2509;49.902;8.600;2023-04-25T18:41:44;11.20;99.90
4985;DHT22;2509;49.902;8.600;2023-04-25T18:44:46;11.20;99.90
4985;DHT22;2509;49.902;8.600;2023-04-25T18:47:47;11.20;99.90
4985;DHT22;2509;49.902;8.600;2023-04-25T18:50:49;11.10;99.90
4985;DHT22;2509;49.902;8.600;2023-04-25T18:53:52;11.10;99.90
4985;DHT22;2509;49.902;8.600;2023-04-25T18:56:54;11.00;99.90
4985;DHT22;2509;49.902;8.600;2023-04-25T18:59:57;10.90;99.90
4985;DHT22;2509;49.902;8.600;2023-04-25T19:03:03;10.80;99.90
4985;DHT22;2509;49.902;8.600;2023-04-25T19:06:05;10.80;99.90
4985;DHT22;2509;49.902;8.600;2023-04-25T19:09:09;10.80;99.90
4985;DHT22;2509;49.902;8.600;2023-04-25T19:12:10;10.70;99.90
4985;DHT22;2509;49.902;8.600;2023-04-25T19:15:12;10.70;99.90
4985;DHT22;2509;49.902;8.600;2023-04-25T19:18:14;10.60;99.90
4985;DHT22;2509;49.902;8.600;2023-04-25T19:21:16;10.50;99.90
4985;DHT22;2509;49.902;8.600;2023-04-25T19:24:19;10.40;99.90
4985;DHT22;2509;49.902;8.600;2023-04-25T19:27:21;10.30;99.90
4985;DHT22;2509;49.902;8.600;2023-04-25T19:30:23;10.30;99.90
4985;DHT22;2509;49.902;8.600;2023-04-25T19:33:25;10.20;99.90
4985;DHT22;2509;49.902;8.600;2023-04-25T19:36:27;10.10;99.90
4985;DHT22;2509;49.902;8.600;2023-04-25T19:39:30;10.00;99.90
4985;DHT22;2509;49.902;8.600;2023-04-25T19:42:32;9.90;99.90
4985;DHT22;2509;49.902;8.600;2023-04-25T19:45:34;9.80;99.90
4985;DHT22;2509;49.902;8.600;2023-04-25T19:48:36;9.70;99.90
4985;DHT22;2509;49.902;8.600;2023-04-25T19:51:38;9.70;99.90
4985;DHT22;2509;49.902;8.600;2023-04-25T19:54:41;9.60;99.90
4985;DHT22;2509;49.902;8.600;2023-04-25T19:57:44;9.50;99.90
4985;DHT22;2509;49.902;8.600;2023-04-25T20:00:46;9.50;99.90
4985;DHT22;2509;49.902;8.600;2023-04-25T20:03:48;9.40;99.90
4985;DHT22;2509;49.902;8.600;2023-04-25T20:06:51;9.40;99.90
4985;DHT22;2509;49.902;8.600;2023-04-25T20:09:55;9.30;99.90
4985;DHT22;2509;49.902;8.600;2023-04-25T20:12:56;9.20;99.90
4985;DHT22;2509;49.902;8.600;2023-04-25T20:15:58;9.20;99.90
4985;DHT22;2509;49.902;8.600;2023-04-25T20:19:00;9.20;99.90
4985;DHT22;2509;49.902;8.600;2023-04-25T20:22:02;9.10;99.90
4985;DHT22;2509;49.902;8.600;2023-04-25T20:25:07;9.10;99.90
4985;DHT22;2509;49.902;8.600;2023-04-25T20:28:09;9.10;99.90
4985;DHT22;2509;49.902;8.600;2023-04-25T20:31:11;9.10;99.90
4985;DHT22;2509;49.902;8.600;2023-04-25T20:34:13;9.20;99.90
4985;DHT22;2509;49.902;8.600;2023-04-25T20:37:15;9.20;99.90
4985;DHT22;2509;49.902;8.600;2023-04-25T20:40:18;9.20;99.90
4985;DHT22;2509;49.902;8.600;2023-04-25T20:43:20;9.10;99.90
4985;DHT22;2509;49.902;8.600;2023-04-25T20:46:22;9.10;99.90
4985;DHT22;2509;49.902;8.600;2023-04-25T20:49:24;9.10;99.90
4985;DHT22;2509;49.902;8.600;2023-04-25T20:52:26;9.10;99.90
4985;DHT22;2509;49.902;8.600;2023-04-25T20:55:30;9.10;99.90
4985;DHT22;2509;49.902;8.600;2023-04-25T20:58:31;9.20;99.90
4985;DHT22;2509;49.902;8.600;2023-04-25T21:01:33;9.20;99.90